createdAt,value
2022-08-18T00:01:42.674Z,100462.94
2022-08-18T00:04:35.831Z,100464.81
2022-08-18T00:06:57.831Z,100467.50
2022-08-18T00:09:31.489Z,100455.88
2022-08-18T00:11:59.816Z,100460.63
2022-08-18T00:14:27.257Z,100460.63
2022-08-18T00:16:54.933Z,100461.69
2022-08-18T00:19:46.923Z,100468.72
2022-08-18T00:22:15.073Z,100460.63
2022-08-18T00:24:48.276Z,100460.84
2022-08-18T00:27:23.386Z,100456.28
2022-08-18T00:29:51.536Z,100464.38
2022-08-18T00:32:24.262Z,100457.31
2022-08-18T00:34:52.054Z,100461.69
2022-08-18T00:37:19.504Z,100453.78
2022-08-18T00:39:48.364Z,100451.09
2022-08-18T00:42:26.975Z,100442.16
2022-08-18T00:44:57.854Z,100445.06
2022-08-18T00:47:41.024Z,100449.63
2022-08-18T00:50:15.132Z,100446.91
2022-08-18T00:52:44.539Z,100446.09
2022-08-18T00:55:13.292Z,100441.91
2022-08-18T00:57:42.729Z,100444.84
2022-08-18T01:00:12.731Z,100444.84
2022-08-18T01:02:43.259Z,100447.53
2022-08-18T01:05:13.557Z,100440.47
2022-08-18T01:07:43.773Z,100434.25
2022-08-18T01:10:16.161Z,100444.19
2022-08-18T01:12:45.398Z,100435.47
2022-08-18T01:15:28.082Z,100428.81
2022-08-18T01:18:15.121Z,100432.75
2022-08-18T01:21:17.051Z,100442.50
2022-08-18T01:23:46.571Z,100440.84
2022-08-18T01:26:13.152Z,100441.69
2022-08-18T01:28:41.798Z,100441.47
2022-08-18T01:31:09.730Z,100439.63
2022-08-18T01:33:38.627Z,100442.94
2022-08-18T01:36:12.686Z,100445.84
2022-08-18T01:38:40.397Z,100432.16
2022-08-18T01:41:26.943Z,100441.06
2022-08-18T01:43:56.717Z,100442.13
2022-08-18T01:46:24.350Z,100436.53
2022-08-18T01:48:52.454Z,100442.13
2022-08-18T01:51:21.669Z,100438.38
2022-08-18T01:54:07.175Z,100424.66
2022-08-18T01:56:36.688Z,100425.03
2022-08-18T01:59:04.467Z,100420.00
2022-08-18T02:01:35.300Z,100425.59
2022-08-18T02:04:33.180Z,100420.59
2022-08-18T02:06:55.846Z,100423.22
2022-08-18T02:09:24.350Z,100422.75
2022-08-18T02:11:55.943Z,100417.09
2022-08-18T02:14:27.184Z,100417.31
2022-08-18T02:17:01.948Z,100409.03
2022-08-18T02:19:33.944Z,100407.38
2022-08-18T02:22:01.405Z,100400.69
2022-08-18T02:24:28.864Z,100411.44
2022-08-18T02:26:57.610Z,100403.75
2022-08-18T02:29:25.106Z,100400.22
2022-08-18T02:31:52.565Z,100404.19
2022-08-18T02:34:20.025Z,100401.75
2022-08-18T02:36:47.471Z,100397.75
2022-08-18T02:39:14.940Z,100397.97
2022-08-18T02:41:42.387Z,100398.56
2022-08-18T02:44:11.184Z,100391.13
2022-08-18T02:46:38.649Z,100401.91
2022-08-18T02:49:07.495Z,100401.69
2022-08-18T02:51:34.941Z,100396.13
2022-08-18T02:54:02.407Z,100400.69
2022-08-18T02:56:39.903Z,100411.47
2022-08-18T02:59:11.733Z,100400.69
2022-08-18T03:01:40.087Z,100396.16
2022-08-18T03:04:08.627Z,100399.91
2022-08-18T03:06:36.756Z,100394.91
2022-08-18T03:09:04.265Z,100386.84
2022-08-18T03:11:31.855Z,100392.84
2022-08-18T03:14:00.222Z,100390.81
2022-08-18T03:16:33.114Z,100394.28
2022-08-18T03:19:00.806Z,100399.06
2022-08-18T03:21:29.525Z,100404.69
2022-08-18T03:24:01.275Z,100412.38
2022-08-18T03:26:30.661Z,100409.25
2022-08-18T03:28:58.177Z,100407.84
2022-08-18T03:31:28.031Z,100401.41
2022-08-18T03:33:59.282Z,100400.19
2022-08-18T03:36:28.786Z,100412.44
2022-08-18T03:38:56.926Z,100404.53
2022-08-18T03:41:43.747Z,100413.28
2022-08-18T03:44:15.599Z,100408.09
2022-08-18T03:46:43.077Z,100413.28
2022-08-18T03:49:11.851Z,100417.81
2022-08-18T03:51:39.379Z,100410.78
2022-08-18T03:54:06.995Z,100409.75
2022-08-18T03:56:37.749Z,100417.81
2022-08-18T03:59:07.736Z,100419.91
2022-08-18T04:01:39.211Z,100414.31
2022-08-18T04:04:07.618Z,100421.56
2022-08-18T04:06:39.261Z,100417.00
2022-08-18T04:09:08.602Z,100414.50
2022-08-18T04:11:37.582Z,100425.28
2022-08-18T04:14:05.252Z,100424.47
2022-08-18T04:16:36.328Z,100424.47
2022-08-18T04:19:04.192Z,100434.41
2022-08-18T04:21:32.858Z,100432.75
2022-08-18T04:24:04.831Z,100434.41
2022-08-18T04:26:37.460Z,100435.44
2022-08-18T04:29:04.949Z,100434.81
2022-08-18T04:31:32.406Z,100434.81
2022-08-18T04:34:00.163Z,100433.94
2022-08-18T04:36:28.046Z,100435.19
2022-08-18T04:38:56.495Z,100431.50
2022-08-18T04:41:27.421Z,100440.78
2022-08-18T04:43:55.293Z,100437.28
2022-08-18T04:46:24.167Z,100436.22
2022-08-18T04:48:52.217Z,100441.41
2022-08-18T04:52:33.997Z,100443.09
2022-08-18T04:54:06.947Z,100440.19
2022-08-18T04:56:37.756Z,100443.09
2022-08-18T04:59:07.698Z,100444.09
2022-08-18T05:01:36.760Z,100452.63
2022-08-18T05:04:04.433Z,100451.19
2022-08-18T05:06:32.879Z,100452.00
2022-08-18T05:09:01.291Z,100454.69
2022-08-18T05:11:29.778Z,100459.25
2022-08-18T05:13:59.075Z,100456.56
2022-08-18T05:16:27.562Z,100456.38
2022-08-18T05:18:55.556Z,100440.41
2022-08-18T05:21:24.438Z,100453.88
2022-08-18T05:23:52.102Z,100457.59
2022-08-18T05:26:19.740Z,100463.59
2022-08-18T05:28:47.345Z,100459.25
2022-08-18T05:31:16.890Z,100463.41
2022-08-18T05:33:44.476Z,100469.84
2022-08-18T05:36:17.013Z,100469.00
2022-08-18T05:38:50.433Z,100459.22
2022-08-18T05:41:21.204Z,100456.28
2022-08-18T05:43:51.548Z,100453.97
2022-08-18T05:46:22.044Z,100460.41
2022-08-18T05:48:49.624Z,100462.69
2022-08-18T05:51:18.656Z,100461.91
2022-08-18T05:54:03.935Z,100462.94
2022-08-18T05:56:48.883Z,100460.66
2022-08-18T05:59:21.559Z,100460.84
2022-08-18T06:01:52.999Z,100462.06
2022-08-18T06:04:24.693Z,100452.06
2022-08-18T06:06:52.349Z,100454.91
2022-08-18T06:09:22.271Z,100454.09
2022-08-18T06:11:49.905Z,100452.84
2022-08-18T06:14:17.455Z,100458.44
2022-08-18T06:16:54.205Z,100463.69
2022-08-18T06:19:30.838Z,100470.78
2022-08-18T06:22:02.642Z,100466.03
2022-08-18T06:24:32.486Z,100472.88
2022-08-18T06:27:02.049Z,100478.28
2022-08-18T06:29:39.828Z,100473.91
2022-08-18T06:32:11.373Z,100482.66
2022-08-18T06:34:42.809Z,100487.19
2022-08-18T06:37:12.698Z,100481.31
2022-08-18T06:39:44.080Z,100484.31
2022-08-18T06:42:11.564Z,100496.66
2022-08-18T06:44:41.732Z,100498.13
2022-08-18T06:47:15.425Z,100503.69
2022-08-18T06:49:46.595Z,100502.25
2022-08-18T06:52:26.520Z,100497.56
2022-08-18T06:54:54.785Z,100493.06
2022-08-18T06:57:25.139Z,100504.28
2022-08-18T07:00:01.060Z,100500.59
2022-08-18T07:02:39.301Z,100506.03
2022-08-18T07:05:07.964Z,100499.34
2022-08-18T07:07:40.356Z,100496.13
2022-08-18T07:10:27.662Z,100500.72
2022-08-18T07:13:06.893Z,100502.84
2022-08-18T07:15:34.350Z,100497.06
2022-08-18T07:18:06.257Z,100500.38
2022-08-18T07:20:33.698Z,100493.13
2022-08-18T07:23:07.871Z,100498.31
2022-08-18T07:25:39.623Z,100501.00
2022-08-18T07:28:08.932Z,100497.28
2022-08-18T07:30:37.801Z,100493.56
2022-08-18T07:33:14.795Z,100494.41
2022-08-18T07:35:45.325Z,100486.13
2022-08-18T07:38:40.707Z,100496.06
2022-08-18T07:41:07.234Z,100489.84
2022-08-18T07:43:38.973Z,100491.50
2022-08-18T07:46:11.172Z,100481.56
2022-08-18T07:48:40.502Z,100487.78
2022-08-18T07:51:17.210Z,100491.03
2022-08-18T07:53:55.564Z,100498.06
2022-08-18T07:56:29.455Z,100497.81
2022-08-18T07:58:58.513Z,100503.66
2022-08-18T08:01:29.594Z,100495.53
2022-08-18T08:04:07.023Z,100506.72
2022-08-18T08:06:37.442Z,100504.41
2022-08-18T08:09:08.450Z,100509.16
2022-08-18T08:11:44.603Z,100511.44
2022-08-18T08:14:22.875Z,100512.94
2022-08-18T08:16:58.750Z,100507.97
2022-08-18T08:20:00.007Z,100509.66
2022-08-18T08:22:31.752Z,100508.22
2022-08-18T08:25:04.039Z,100503.22
2022-08-18T08:27:37.604Z,100504.28
2022-08-18T08:30:06.772Z,100501.19
2022-08-18T08:32:35.469Z,100506.41
2022-08-18T08:35:07.176Z,100509.72
2022-08-18T08:37:36.900Z,100509.34
2022-08-18T08:40:08.413Z,100509.34
2022-08-18T08:42:41.042Z,100515.38
2022-08-18T08:45:10.628Z,100514.16
2022-08-18T08:47:41.247Z,100507.09
2022-08-18T08:50:13.385Z,100510.41
2022-08-18T08:52:42.973Z,100511.25
2022-08-18T08:55:12.220Z,100505.44
2022-08-18T08:57:42.632Z,100508.16
2022-08-18T09:00:10.992Z,100498.41
2022-08-18T09:02:50.530Z,100505.09
2022-08-18T09:05:20.778Z,100492.69
2022-08-18T09:08:17.562Z,100497.66
2022-08-18T09:11:21.088Z,100491.25
2022-08-18T09:14:21.242Z,100491.25
2022-08-18T09:16:53.860Z,100492.50
2022-08-18T09:19:37.911Z,100484.41
2022-08-18T09:22:08.949Z,100487.78
2022-08-18T09:24:40.736Z,100491.13
2022-08-18T09:27:18.918Z,100486.75
2022-08-18T09:29:49.420Z,100482.38
2022-08-18T09:32:42.047Z,100474.94
2022-08-18T09:35:15.882Z,100479.28
2022-08-18T09:38:08.344Z,100469.13
2022-08-18T09:41:03.451Z,100476.00
2022-08-18T09:43:34.296Z,100476.81
2022-08-18T09:46:05.635Z,100472.91
2022-08-18T09:48:34.480Z,100471.66
2022-08-18T09:51:32.498Z,100468.75
2022-08-18T09:54:25.083Z,100468.38
2022-08-18T09:57:25.581Z,100455.69
2022-08-18T09:59:55.746Z,100458.00
2022-08-18T10:03:11.284Z,100453.22
2022-08-18T10:05:38.761Z,100450.72
2022-08-18T10:08:27.862Z,100447.81
2022-08-18T10:11:01.401Z,100440.16
2022-08-18T10:13:48.927Z,100438.94
2022-08-18T10:16:19.568Z,100429.84
2022-08-18T10:18:55.682Z,100425.72
2022-08-18T10:21:31.487Z,100425.28
2022-08-18T10:24:35.046Z,100430.09
2022-08-18T10:27:03.873Z,100428.63
2022-08-18T10:29:49.528Z,100430.31
2022-08-18T10:32:39.348Z,100429.91
2022-08-18T10:38:17.273Z,100426.34
2022-08-18T10:40:44.781Z,100435.72
2022-08-18T10:43:45.189Z,100427.41
2022-08-18T10:46:25.449Z,100427.41
2022-08-18T10:49:17.484Z,100423.47
2022-08-18T10:51:58.064Z,100427.44
2022-08-18T10:54:33.846Z,100412.09
2022-08-18T10:57:09.319Z,100412.09
2022-08-18T10:59:50.576Z,100415.41
2022-08-18T11:05:25.207Z,100413.72
2022-08-18T11:07:58.706Z,100409.59
2022-08-18T11:10:57.904Z,100399.59
2022-08-18T11:13:29.225Z,100400.00
2022-08-18T11:16:03.334Z,100396.44
2022-08-18T11:18:36.349Z,100396.66
2022-08-18T11:21:23.487Z,100394.72
2022-08-18T11:24:03.813Z,100392.28
2022-08-18T11:26:31.378Z,100400.81
2022-08-18T11:28:58.838Z,100396.63
2022-08-18T11:31:27.578Z,100389.59
2022-08-18T11:33:57.876Z,100385.00
2022-08-18T11:36:34.135Z,100384.19
2022-08-18T11:39:02.544Z,100388.97
2022-08-18T11:41:33.846Z,100387.50
2022-08-18T11:44:18.788Z,100380.00
2022-08-18T11:46:51.810Z,100393.91
2022-08-18T11:49:23.987Z,100393.09
2022-08-18T11:51:55.731Z,100389.78
2022-08-18T11:54:24.798Z,100383.97
2022-08-18T11:56:52.489Z,100381.88
2022-08-18T11:59:52.320Z,100382.09
2022-08-18T12:02:22.367Z,100372.50
2022-08-18T12:04:53.827Z,100376.06
2022-08-18T12:07:29.384Z,100371.88
2022-08-18T12:10:17.665Z,100372.88
2022-08-18T12:12:46.886Z,100377.88
2022-08-18T12:15:29.671Z,100382.25
2022-08-18T12:18:25.938Z,100381.22
2022-08-18T12:20:55.899Z,100382.44
2022-08-18T12:23:24.968Z,100381.19
2022-08-18T12:25:52.545Z,100373.69
2022-08-18T12:31:15.174Z,100366.81
2022-08-18T12:33:47.880Z,100365.91
2022-08-18T12:36:29.114Z,100355.28
2022-08-18T12:38:57.152Z,100347.75
2022-08-18T12:41:24.708Z,100340.25
2022-08-18T12:43:58.497Z,100348.25
2022-08-18T12:46:27.069Z,100336.59
2022-08-18T12:48:56.110Z,100338.84
2022-08-18T12:51:24.883Z,100333.25
2022-08-18T12:53:59.925Z,100332.63
2022-08-18T12:56:32.437Z,100330.72
2022-08-18T12:59:00.838Z,100324.03
2022-08-18T13:01:32.372Z,100331.16
2022-08-18T13:04:11.511Z,100323.47
2022-08-18T13:06:58.751Z,100324.91
2022-08-18T13:09:34.839Z,100332.84
2022-08-18T13:12:16.373Z,100325.97
2022-08-18T13:14:44.198Z,100325.75
2022-08-18T13:17:28.983Z,100320.16
2022-08-18T13:20:01.030Z,100322.25
2022-08-18T13:22:31.933Z,100320.34
2022-08-18T13:25:00.986Z,100311.16
2022-08-18T13:27:32.773Z,100314.47
2022-08-18T13:30:03.248Z,100318.69
2022-08-18T13:33:00.445Z,100313.50
2022-08-18T13:35:38.322Z,100310.09
2022-08-18T13:38:15.670Z,100305.16
2022-08-18T13:40:49.794Z,100305.16
2022-08-18T13:43:17.805Z,100302.00
2022-08-18T13:45:46.970Z,100311.34
2022-08-18T13:48:20.710Z,100306.59
2022-08-18T13:50:52.753Z,100299.28
2022-08-18T13:53:21.210Z,100296.16
2022-08-18T13:55:49.173Z,100294.13
2022-08-18T13:58:20.874Z,100291.63
2022-08-18T14:00:49.368Z,100290.34
2022-08-18T14:03:20.504Z,100277.44
2022-08-18T14:06:05.862Z,100282.03
2022-08-18T14:08:34.795Z,100275.78
2022-08-18T14:11:02.914Z,100278.09
2022-08-18T14:13:38.258Z,100276.22
2022-08-18T14:16:16.162Z,100274.53
2022-08-18T14:19:10.122Z,100274.94
2022-08-18T14:21:59.043Z,100269.91
2022-08-18T14:24:44.027Z,100263.69
2022-08-18T14:27:16.750Z,100265.34
2022-08-18T14:29:47.857Z,100258.28
2022-08-18T14:32:18.224Z,100267.47
2022-08-18T14:35:00.417Z,100266.56
2022-08-18T14:37:30.118Z,100271.19
2022-08-18T14:39:57.969Z,100275.75
2022-08-18T14:42:32.940Z,100285.31
2022-08-18T14:45:26.520Z,100294.06
2022-08-18T14:48:00.419Z,100289.72
2022-08-18T14:50:27.861Z,100292.59
2022-08-18T14:52:56.657Z,100291.97
2022-08-18T14:55:26.824Z,100290.31
2022-08-18T14:57:54.604Z,100297.56
2022-08-18T15:00:22.785Z,100294.00
2022-08-18T15:02:50.385Z,100298.81
2022-08-18T15:05:24.543Z,100301.09
2022-08-18T15:07:52.906Z,100305.69
2022-08-18T15:10:23.322Z,100298.00
2022-08-18T15:12:55.247Z,100298.59
2022-08-18T15:15:22.969Z,100293.63
2022-08-18T15:17:52.781Z,100282.38
2022-08-18T15:20:20.725Z,100287.78
2022-08-18T15:23:13.582Z,100294.88
2022-08-18T15:25:45.735Z,100295.28
2022-08-18T15:28:16.255Z,100295.13
2022-08-18T15:30:44.453Z,100290.75
2022-08-18T15:33:14.265Z,100292.41
2022-08-18T15:35:44.352Z,100291.16
2022-08-18T15:38:12.589Z,100297.47
2022-08-18T15:40:41.648Z,100302.91
2022-08-18T15:43:14.497Z,100302.50
2022-08-18T15:45:56.080Z,100299.63
2022-08-18T15:48:26.834Z,100307.97
2022-08-18T15:50:54.377Z,100305.47
2022-08-18T15:53:22.994Z,100309.19
2022-08-18T15:55:50.497Z,100311.72
2022-08-18T15:58:22.399Z,100332.53
2022-08-18T16:00:54.468Z,100360.81
2022-08-18T16:03:21.997Z,100376.63
2022-08-18T16:05:52.789Z,100381.03
2022-08-18T16:08:20.867Z,100389.19
2022-08-18T16:10:48.514Z,100415.59
2022-08-18T16:13:17.306Z,100438.66
2022-08-18T16:15:48.087Z,100488.97
2022-08-18T16:18:16.357Z,100437.84
2022-08-18T16:23:12.097Z,100421.22
2022-08-18T16:25:39.539Z,100437.44
2022-08-18T16:28:07.321Z,100419.53
2022-08-18T16:30:35.178Z,100403.72
2022-08-18T16:33:04.074Z,100399.16
2022-08-18T16:35:31.608Z,100397.50
2022-08-18T16:38:02.873Z,100396.69
2022-08-18T16:40:31.426Z,100400.00
2022-08-18T16:43:00.548Z,100388.34
2022-08-18T16:45:28.240Z,100386.50
2022-08-18T16:47:55.839Z,100392.91
2022-08-18T16:50:25.343Z,100394.81
2022-08-18T16:52:53.004Z,100384.19
2022-08-18T16:55:20.753Z,100384.19
2022-08-18T16:58:05.969Z,100376.09
2022-08-18T17:00:55.208Z,100370.28
2022-08-18T17:03:40.824Z,100379.63
2022-08-18T17:06:11.747Z,100365.50
2022-08-18T17:08:39.473Z,100360.50
2022-08-18T17:11:08.545Z,100366.34
2022-08-18T17:13:36.693Z,100388.75
2022-08-18T17:16:04.626Z,100375.88
2022-08-18T17:18:32.212Z,100379.63
2022-08-18T17:21:02.056Z,100377.53
2022-08-18T17:23:30.852Z,100375.66
2022-08-18T17:25:58.418Z,100369.66
2022-08-18T17:28:26.988Z,100372.97
2022-08-18T17:30:56.956Z,100370.25
2022-08-18T17:33:27.328Z,100374.03
2022-08-18T17:35:54.897Z,100377.53
2022-08-18T17:38:26.918Z,100369.66
2022-08-18T17:40:56.533Z,100381.28
2022-08-18T17:43:29.967Z,100376.94
2022-08-18T17:45:59.776Z,100374.44
2022-08-18T17:48:29.048Z,100370.06
2022-08-18T17:51:16.529Z,100370.25
2022-08-18T17:53:45.268Z,100369.25
2022-08-18T17:56:16.897Z,100379.63
2022-08-18T17:59:03.940Z,100376.31
2022-08-18T18:01:33.470Z,100379.84
2022-08-18T18:04:00.958Z,100382.53
2022-08-18T18:06:31.691Z,100381.72
2022-08-18T18:09:00.662Z,100385.44
2022-08-18T18:11:32.369Z,100388.34
2022-08-18T18:14:00.736Z,100382.94
2022-08-18T18:16:34.818Z,100389.38
2022-08-18T18:19:04.315Z,100392.31
2022-08-18T18:22:00.503Z,100403.31
2022-08-18T18:24:24.154Z,100396.25
2022-08-18T18:26:53.079Z,100396.03
2022-08-18T18:29:28.214Z,100403.31
2022-08-18T18:32:00.385Z,100396.25
2022-08-18T18:34:30.914Z,100395.44
2022-08-18T18:36:59.418Z,100387.53
2022-08-18T18:39:34.203Z,100382.13
2022-08-18T18:42:17.442Z,100378.59
2022-08-18T18:44:51.557Z,100380.25
2022-08-18T18:47:34.828Z,100375.66
2022-08-18T18:50:04.816Z,100375.66
2022-08-18T18:52:37.894Z,100390.03
2022-08-18T18:55:07.512Z,100390.22
2022-08-18T18:57:40.178Z,100382.13
2022-08-18T19:00:18.120Z,100382.13
2022-08-18T19:02:54.000Z,100389.41
2022-08-18T19:05:26.228Z,100393.13
2022-08-18T19:08:07.030Z,100394.16
2022-08-18T19:10:38.709Z,100403.91
2022-08-18T19:13:11.812Z,100411.31
2022-08-18T19:16:01.245Z,100406.91
2022-08-18T19:18:29.657Z,100394.59
2022-08-18T19:22:02.257Z,100390.22
2022-08-18T19:23:49.381Z,100398.63
2022-08-18T19:26:22.651Z,100402.38
2022-08-18T19:29:01.169Z,100407.91
2022-08-18T19:31:41.836Z,100409.84
2022-08-18T19:34:10.482Z,100407.41
2022-08-18T19:36:43.959Z,100407.25
2022-08-18T19:39:13.622Z,100410.41
2022-08-18T19:41:45.641Z,100424.56
2022-08-18T19:44:24.178Z,100427.66
2022-08-18T19:46:52.747Z,100418.44
2022-08-18T19:49:23.509Z,100409.34
2022-08-18T19:51:53.888Z,100397.53
2022-08-18T19:54:52.363Z,100411.03
2022-08-18T19:57:26.680Z,100395.44
2022-08-18T20:00:11.685Z,100392.91
2022-08-18T20:02:55.758Z,100408.78
2022-08-18T20:05:29.061Z,100398.91
2022-08-18T20:08:07.513Z,100386.50
2022-08-18T20:10:54.759Z,100381.59
2022-08-18T20:13:32.871Z,100390.81
2022-08-18T20:16:12.795Z,100379.19
2022-08-18T20:18:42.109Z,100373.81
2022-08-18T20:21:34.437Z,100354.72
2022-08-18T20:24:18.325Z,100353.31
2022-08-18T20:26:49.037Z,100358.28
2022-08-18T20:29:18.130Z,100368.03
2022-08-18T20:31:59.666Z,100382.78
2022-08-18T20:34:27.818Z,100395.88
2022-08-18T20:36:55.526Z,100399.38
2022-08-18T20:39:33.007Z,100417.22
2022-08-18T20:42:01.104Z,100422.59
2022-08-18T20:44:37.369Z,100436.94
2022-08-18T20:47:22.896Z,100438.81
2022-08-18T20:49:57.973Z,100436.69
2022-08-18T20:52:34.715Z,100430.28
2022-08-18T20:55:11.730Z,100433.19
2022-08-18T20:57:39.455Z,100423.63
2022-08-18T21:00:13.157Z,100412.44
2022-08-18T21:02:47.038Z,100417.81
2022-08-18T21:05:16.589Z,100407.03
2022-08-18T21:07:59.097Z,100398.94
2022-08-18T21:10:29.666Z,100411.22
2022-08-18T21:12:59.097Z,100412.44
2022-08-18T21:15:27.441Z,100400.81
2022-08-18T21:18:00.957Z,100394.22
2022-08-18T21:20:28.452Z,100387.97
2022-08-18T21:23:04.261Z,100380.91
2022-08-18T21:25:34.439Z,100372.97
2022-08-18T21:28:02.229Z,100371.28
2022-08-18T21:30:30.208Z,100379.03
2022-08-18T21:32:57.762Z,100370.50
2022-08-18T21:35:29.207Z,100365.75
2022-08-18T21:38:00.744Z,100356.00
2022-08-18T21:40:36.473Z,100363.06
2022-08-18T21:43:03.939Z,100365.94
2022-08-18T21:45:31.493Z,100360.75
2022-08-18T21:48:00.030Z,100358.66
2022-08-18T21:50:31.698Z,100360.13
2022-08-18T21:53:00.430Z,100356.00
2022-08-18T21:55:31.036Z,100345.44
2022-08-18T21:58:03.694Z,100342.31
2022-08-18T22:00:32.231Z,100333.78
2022-08-18T22:03:17.884Z,100336.06
2022-08-18T22:05:58.979Z,100334.44
2022-08-18T22:08:28.373Z,100357.25
2022-08-18T22:12:00.052Z,100371.75
2022-08-18T22:14:27.191Z,100363.06
2022-08-18T22:17:29.392Z,100355.59
2022-08-18T22:19:56.846Z,100346.47
2022-08-18T22:22:43.058Z,100354.19
2022-08-18T22:25:11.947Z,100360.59
2022-08-18T22:27:40.057Z,100373.44
2022-08-18T22:30:08.069Z,100370.94
2022-08-18T22:32:36.649Z,100375.69
2022-08-18T22:35:04.213Z,100378.41
2022-08-18T22:37:36.963Z,100378.19
2022-08-18T22:40:09.455Z,100379.22
2022-08-18T22:42:37.214Z,100378.41
2022-08-18T22:45:06.277Z,100371.53
2022-08-18T22:47:42.868Z,100366.78
2022-08-18T22:50:11.226Z,100365.75
2022-08-18T22:52:41.352Z,100349.56
2022-08-18T22:55:12.727Z,100349.97
2022-08-18T22:57:42.850Z,100370.72
2022-08-18T23:00:12.437Z,100375.28
2022-08-18T23:02:40.177Z,100382.50
2022-08-18T23:05:08.169Z,100394.13
2022-08-18T23:07:35.677Z,100385.84
2022-08-18T23:10:08.079Z,100391.25
2022-08-18T23:12:40.854Z,100390.00
2022-08-18T23:15:11.033Z,100398.47
2022-08-18T23:17:39.389Z,100407.00
2022-08-18T23:20:08.419Z,100409.47
2022-08-18T23:22:39.020Z,100399.97
2022-08-18T23:25:09.396Z,100392.06
2022-08-18T23:27:37.170Z,100403.69
2022-08-18T23:30:04.971Z,100391.88
2022-08-18T23:32:33.325Z,100386.28
2022-08-18T23:35:03.396Z,100392.06
2022-08-18T23:37:31.513Z,100382.13
2022-08-18T23:39:59.122Z,100377.78
2022-08-18T23:42:27.948Z,100388.75
2022-08-18T23:44:58.855Z,100402.22
2022-08-18T23:47:29.451Z,100394.13
2022-08-18T23:49:57.530Z,100383.97
2022-08-18T23:52:24.994Z,100384.56
2022-08-18T23:54:52.458Z,100391.00
2022-08-18T23:57:19.922Z,100380.81
2022-08-18T23:59:48.693Z,100397.56
